Carthage, North Carolina
Current Conditions -  °F | °C
As of 12:55 PM on Saturday 20 Dec 2014 (Local Time) from KSOP Reporting Station
Overcast Overcast  
Wind Chill:   Ceiling: 800
Heat Index:   Visibility: 8mi
Dew Point:   Wind: 6mph
Humidity: 87%   Direction: 60°ENE
Pressure: 30.25"   Gusts: NA
Location:  35.35°N, 79.42°W
Report Text: KSOP 201755Z AUTO 06005KT 8SM OVC008 03/01 A3025 RMK AO1 60001 10040 20030 57007
Loading
Personal Weather Stations






























Interactive Weather Map New forecast layout! Learn more

10-Day Weather Forecast

Advertisements
Track Severe Weather on mobile